This is the latest recevied weather packets stored in our database for station/object IZ1UQG-2. If no packets are shown the sender has not sent any weather packets the latest 10 day(s).
| Time | Temp. | Humidity | Pressure | Rain* | Wind** | Luminosity | Snow |
|---|---|---|---|---|---|---|---|
| 1777209123 | 24.44° C | 35% | 1013.9 hPa | 0 mm | - | 396 W/m² | - |
| 1777209003 | 24.44° C | 34% | 1013.8 hPa | 0 mm | - | 387 W/m² | - |
| 1777206543 | 24.44° C | 31% | 1014.1 hPa | 0 mm | - | 659 W/m² | - |
| 1777206423 | 24.44° C | 31% | 1014.1 hPa | 0 mm | - | 666 W/m² | - |
| 1777206303 | 24.44° C | 32% | 1014 hPa | 0 mm | - | 612 W/m² | - |
| 1777206183 | 24.44° C | 32% | 1014.2 hPa | 0 mm | - | 703 W/m² | - |
| 1777206124 | 24.44° C | 32% | 1014 hPa | 0 mm | - | 686 W/m² | - |
| 1777205823 | 24.44° C | 34% | 1014.2 hPa | 0 mm | - | 691 W/m² | - |
| 1777205523 | 24.44° C | 36% | 1014.1 hPa | 0 mm | - | 615 W/m² | - |
| 1777204863 | 24.44° C | 37% | 1014.1 hPa | 0 mm | - | 717 W/m² | - |
| 1777204623 | 24.44° C | 37% | 1014.2 hPa | 0 mm | - | 745 W/m² | - |
| 1777204393 | 23.89° C | 37% | 1014.2 hPa | 0 mm | - | 728 W/m² | - |
| 1777204323 | 23.89° C | 37% | 1014.3 hPa | 0 mm | - | 761 W/m² | - |
| 1777204143 | 23.89° C | 38% | 1014.4 hPa | 0 mm | - | 710 W/m² | - |
| 1777203786 | 23.89° C | 38% | 1014.3 hPa | 0 mm | - | 663 W/m² | - |
| 1777203723 | 23.89° C | 36% | 1014.3 hPa | 0 mm | - | 698 W/m² | - |
| 1777202883 | 23.89° C | 39% | 1014.5 hPa | 0 mm | - | 730 W/m² | - |
| 1777202224 | 23.33° C | 36% | 1014.6 hPa | 0 mm | - | 737 W/m² | - |
| 1777201323 | 22.78° C | 35% | 1014.8 hPa | 0 mm | - | 763 W/m² | - |
| 1777201143 | 22.78° C | 35% | 1014.7 hPa | 0 mm | - | 742 W/m² | - |
| 1777200603 | 22.78° C | 36% | 1014.8 hPa | 0 mm | - | 784 W/m² | - |
| 1777199404 | 22.22° C | 37% | 1014.9 hPa | 0 mm | - | 798 W/m² | - |
| 1777199163 | 22.22° C | 38% | 1015 hPa | 0 mm | - | 773 W/m² | - |
| 1777198923 | 22.22° C | 40% | 1014.9 hPa | 0 mm | - | 684 W/m² | - |
| 1777198803 | 22.22° C | 39% | 1014.9 hPa | 0 mm | - | 756 W/m² | - |
* Rain latest hour (hover to see other rain measurements)
** Current wind speed in m/s (hover to see current wind gust speed)